createdAt,value
2023-01-20T00:01:36.162Z,100.00
2023-01-20T00:04:02.682Z,100.00
2023-01-20T00:06:29.477Z,100.00
2023-01-20T00:09:00.173Z,100.00
2023-01-20T00:11:27.855Z,100.00
2023-01-20T00:14:03.273Z,100.00
2023-01-20T00:16:30.154Z,100.00
2023-01-20T00:18:56.591Z,100.00
2023-01-20T00:21:23.416Z,100.00
2023-01-20T00:23:50.391Z,100.00
2023-01-20T00:26:19.692Z,100.00
2023-01-20T00:28:47.026Z,100.00
2023-01-20T00:31:16.171Z,100.00
2023-01-20T00:33:43.610Z,100.00
2023-01-20T00:36:11.169Z,100.00
2023-01-20T00:38:37.762Z,100.00
2023-01-20T00:41:04.532Z,100.00
2023-01-20T00:43:31.151Z,100.00
2023-01-20T00:45:57.575Z,100.00
2023-01-20T00:48:23.969Z,100.00
2023-01-20T00:50:50.336Z,100.00
2023-01-20T00:53:20.046Z,100.00
2023-01-20T00:55:46.402Z,100.00
2023-01-20T00:58:12.973Z,100.00
2023-01-20T01:00:39.364Z,100.00
2023-01-20T01:03:05.656Z,100.00
2023-01-20T01:05:32.742Z,100.00
2023-01-20T01:07:59.157Z,100.00
2023-01-20T01:10:25.738Z,100.00
2023-01-20T01:12:52.112Z,100.00
2023-01-20T01:15:18.579Z,100.00
2023-01-20T01:17:44.813Z,100.00
2023-01-20T01:20:12.995Z,100.00
2023-01-20T01:22:39.940Z,100.00
2023-01-20T01:25:07.084Z,100.00
2023-01-20T01:27:33.468Z,100.00
2023-01-20T01:29:59.823Z,100.00
2023-01-20T01:32:26.195Z,100.00
2023-01-20T01:34:52.519Z,100.00
2023-01-20T01:37:19.089Z,100.00
2023-01-20T01:39:45.447Z,100.00
2023-01-20T01:42:13.251Z,100.00
2023-01-20T01:45:12.026Z,100.00
2023-01-20T01:47:43.525Z,100.00
2023-01-20T01:50:15.892Z,100.00
2023-01-20T01:52:45.666Z,100.00
2023-01-20T01:55:13.694Z,100.00
2023-01-20T01:57:40.252Z,100.00
2023-01-20T02:00:06.953Z,100.00
2023-01-20T02:02:33.669Z,100.00
2023-01-20T02:05:00.049Z,100.00
2023-01-20T02:07:27.029Z,100.00
2023-01-20T02:09:53.589Z,100.00
2023-01-20T02:12:22.201Z,100.00
2023-01-20T02:14:52.157Z,100.00
2023-01-20T02:17:38.104Z,100.00
2023-01-20T02:20:13.215Z,100.00
2023-01-20T02:22:57.525Z,100.00
2023-01-20T02:25:41.671Z,100.00
2023-01-20T02:28:10.669Z,100.00
2023-01-20T02:31:11.426Z,100.00
2023-01-20T02:33:55.958Z,100.00
2023-01-20T02:36:32.375Z,100.00
2023-01-20T02:39:27.249Z,100.00
2023-01-20T02:42:02.665Z,100.00
2023-01-20T02:44:50.687Z,100.00
2023-01-20T02:47:31.756Z,100.00
2023-01-20T02:50:21.214Z,100.00
2023-01-20T02:52:52.511Z,100.00
2023-01-20T02:55:28.085Z,100.00
2023-01-20T02:58:01.999Z,100.00
2023-01-20T03:00:39.016Z,100.00
2023-01-20T03:03:13.990Z,100.00
2023-01-20T03:05:47.407Z,100.00
2023-01-20T03:08:16.060Z,100.00
2023-01-20T03:10:45.311Z,100.00
2023-01-20T03:13:19.249Z,100.00
2023-01-20T03:15:58.520Z,100.00
2023-01-20T03:18:25.568Z,100.00
2023-01-20T03:20:51.947Z,100.00
2023-01-20T03:23:18.265Z,100.00
2023-01-20T03:25:47.712Z,100.00
2023-01-20T03:28:14.289Z,100.00
2023-01-20T03:30:40.953Z,100.00
2023-01-20T03:33:08.928Z,100.00
2023-01-20T03:35:36.445Z,100.00
2023-01-20T03:38:03.069Z,100.00
2023-01-20T03:40:36.267Z,100.00
2023-01-20T03:43:14.511Z,100.00
2023-01-20T03:45:55.077Z,100.00
2023-01-20T03:48:49.385Z,100.00
2023-01-20T03:51:34.597Z,100.00
2023-01-20T03:54:09.175Z,100.00
2023-01-20T03:56:41.219Z,100.00
2023-01-20T03:59:11.011Z,100.00
2023-01-20T04:01:41.612Z,100.00
2023-01-20T04:04:12.561Z,100.00
2023-01-20T04:06:42.449Z,100.00
2023-01-20T04:09:13.320Z,100.00
2023-01-20T04:11:39.756Z,100.00
2023-01-20T04:14:08.004Z,100.00
2023-01-20T04:16:34.441Z,100.00
2023-01-20T04:19:00.738Z,100.00
2023-01-20T04:21:38.965Z,100.00
2023-01-20T04:24:11.785Z,100.00
2023-01-20T04:26:38.155Z,100.00
2023-01-20T04:29:04.405Z,100.00
2023-01-20T04:31:31.583Z,100.00
2023-01-20T04:33:58.068Z,100.00
2023-01-20T04:36:24.336Z,100.00
2023-01-20T04:38:50.694Z,100.00
2023-01-20T04:41:16.996Z,100.00
2023-01-20T04:43:44.452Z,100.00
2023-01-20T04:46:12.376Z,100.00
2023-01-20T04:48:38.746Z,100.00
2023-01-20T04:51:06.065Z,100.00
2023-01-20T04:53:32.522Z,100.00
2023-01-20T04:55:58.833Z,100.00
2023-01-20T04:58:25.408Z,100.00
2023-01-20T05:00:52.065Z,100.00
2023-01-20T05:03:18.559Z,100.00
2023-01-20T05:05:51.395Z,100.00
2023-01-20T05:08:17.726Z,100.00
2023-01-20T05:10:44.104Z,100.00
2023-01-20T05:13:10.354Z,100.00
2023-01-20T05:15:36.755Z,100.00
2023-01-20T05:18:03.092Z,100.00
2023-01-20T05:20:29.585Z,100.00
2023-01-20T05:22:55.977Z,100.00
2023-01-20T05:25:22.243Z,100.00
2023-01-20T05:27:48.557Z,100.00
2023-01-20T05:30:15.370Z,100.00
2023-01-20T05:32:41.915Z,100.00
2023-01-20T05:35:09.077Z,100.00
2023-01-20T05:37:35.551Z,100.00
2023-01-20T05:40:01.966Z,100.00
2023-01-20T05:42:28.373Z,100.00
2023-01-20T05:44:54.665Z,100.00
2023-01-20T05:47:20.979Z,100.00
2023-01-20T05:49:47.331Z,100.00
2023-01-20T05:52:13.735Z,100.00
2023-01-20T05:54:40.028Z,100.00
2023-01-20T05:57:10.412Z,100.00
2023-01-20T05:59:36.925Z,100.00
2023-01-20T06:02:03.198Z,100.00
2023-01-20T06:04:29.523Z,100.00
2023-01-20T06:06:55.879Z,100.00
2023-01-20T06:09:22.370Z,100.00
2023-01-20T06:11:48.608Z,100.00
2023-01-20T06:14:14.960Z,100.00
2023-01-20T06:16:41.352Z,100.00
2023-01-20T06:19:07.777Z,100.00
2023-01-20T06:21:34.113Z,100.00
2023-01-20T06:24:00.499Z,100.00
2023-01-20T06:26:26.813Z,100.00
2023-01-20T06:28:57.745Z,100.00
2023-01-20T06:31:24.215Z,100.00
2023-01-20T06:33:50.665Z,100.00
2023-01-20T06:36:16.966Z,100.00
2023-01-20T06:38:43.356Z,100.00
2023-01-20T06:41:10.976Z,100.00
2023-01-20T06:43:37.451Z,100.00
2023-01-20T06:46:05.302Z,100.00
2023-01-20T06:48:32.081Z,100.00
2023-01-20T06:51:17.080Z,100.00
2023-01-20T06:53:44.289Z,100.00
2023-01-20T06:56:12.084Z,100.00
2023-01-20T06:58:38.596Z,100.00
2023-01-20T07:01:14.829Z,100.00
2023-01-20T07:03:44.671Z,100.00
2023-01-20T07:06:24.875Z,100.00
2023-01-20T07:08:51.366Z,100.00
2023-01-20T07:11:17.602Z,100.00
2023-01-20T07:13:43.969Z,100.00
2023-01-20T07:16:12.544Z,100.00
2023-01-20T07:18:40.709Z,100.00
2023-01-20T07:21:07.133Z,100.00
2023-01-20T07:23:33.420Z,100.00
2023-01-20T07:26:05.546Z,100.00
2023-01-20T07:28:32.471Z,100.00
2023-01-20T07:31:09.261Z,100.00
2023-01-20T07:33:36.400Z,100.00
2023-01-20T07:36:03.650Z,100.00
2023-01-20T07:38:30.139Z,100.00
2023-01-20T07:41:00.268Z,100.00
2023-01-20T07:43:26.879Z,100.00
2023-01-20T07:46:01.490Z,100.00
2023-01-20T07:48:30.375Z,100.00
2023-01-20T07:50:58.298Z,100.00
2023-01-20T07:53:24.637Z,100.00
2023-01-20T07:55:50.957Z,100.00
2023-01-20T07:58:17.540Z,100.00
2023-01-20T08:00:43.953Z,100.00
2023-01-20T08:03:10.281Z,100.00
2023-01-20T08:05:36.644Z,100.00
2023-01-20T08:08:03.096Z,100.00
2023-01-20T08:10:29.418Z,100.00
2023-01-20T08:12:55.797Z,100.00
2023-01-20T08:15:22.128Z,100.00
2023-01-20T08:17:53.703Z,100.00
2023-01-20T08:20:20.108Z,100.00
2023-01-20T08:22:46.470Z,100.00
2023-01-20T08:25:13.137Z,100.00
2023-01-20T08:27:39.691Z,100.00
2023-01-20T08:30:06.748Z,100.00
2023-01-20T08:32:33.120Z,100.00
2023-01-20T08:34:59.547Z,100.00
2023-01-20T08:37:25.889Z,100.00
2023-01-20T08:39:53.288Z,100.00
2023-01-20T08:42:19.685Z,100.00
2023-01-20T08:44:45.919Z,100.00
2023-01-20T08:47:12.261Z,100.00
2023-01-20T08:49:38.669Z,100.00
2023-01-20T08:52:04.965Z,100.00
2023-01-20T08:54:31.298Z,100.00
2023-01-20T08:56:57.672Z,100.00
2023-01-20T08:59:24.056Z,100.00
2023-01-20T09:01:50.306Z,100.00
2023-01-20T09:04:16.701Z,100.00
2023-01-20T09:06:44.268Z,100.00
2023-01-20T09:09:11.698Z,100.00
2023-01-20T09:11:40.137Z,100.00
2023-01-20T09:14:06.782Z,100.00
2023-01-20T09:16:33.201Z,100.00
2023-01-20T09:18:59.450Z,100.00
2023-01-20T09:21:25.825Z,100.00
2023-01-20T09:23:52.213Z,100.00
2023-01-20T09:26:34.384Z,100.00
2023-01-20T09:29:02.086Z,100.00
2023-01-20T09:31:28.505Z,100.00
2023-01-20T09:33:54.905Z,100.00
2023-01-20T09:36:21.186Z,100.00
2023-01-20T09:38:47.505Z,100.00
2023-01-20T09:41:21.227Z,100.00
2023-01-20T09:44:17.076Z,100.00
2023-01-20T09:46:51.533Z,100.00
2023-01-20T09:49:35.128Z,100.00
2023-01-20T09:52:21.382Z,100.00
2023-01-20T09:54:55.746Z,100.00
2023-01-20T09:57:26.922Z,100.00
2023-01-20T10:00:05.750Z,100.00
2023-01-20T10:02:35.825Z,100.00
2023-01-20T10:05:12.377Z,100.00
2023-01-20T10:08:07.596Z,100.00
2023-01-20T10:10:36.949Z,100.00
2023-01-20T10:13:10.885Z,100.00
2023-01-20T10:15:43.543Z,100.00
2023-01-20T10:18:15.211Z,100.00
2023-01-20T10:20:49.061Z,100.00
2023-01-20T10:23:37.572Z,100.00
2023-01-20T10:26:17.262Z,100.00
2023-01-20T10:28:49.446Z,100.00
2023-01-20T10:31:23.832Z,100.00
2023-01-20T10:33:54.046Z,100.00
2023-01-20T10:36:27.388Z,100.00
2023-01-20T10:38:58.376Z,100.00
2023-01-20T10:41:31.003Z,100.00
2023-01-20T10:43:59.628Z,100.00
2023-01-20T10:46:54.076Z,100.00
2023-01-20T10:49:47.933Z,100.00
2023-01-20T10:52:37.390Z,100.00
2023-01-20T10:55:16.071Z,100.00
2023-01-20T10:57:42.652Z,100.00
2023-01-20T11:00:35.280Z,100.00
2023-01-20T11:03:03.797Z,100.00
2023-01-20T11:05:35.079Z,100.00
2023-01-20T11:08:17.003Z,100.00
2023-01-20T11:10:44.161Z,100.00
2023-01-20T11:13:11.792Z,100.00
2023-01-20T11:15:43.975Z,100.00
2023-01-20T11:18:16.397Z,100.00
2023-01-20T11:20:45.798Z,100.00
2023-01-20T11:23:40.811Z,100.00
2023-01-20T11:26:08.646Z,100.00
2023-01-20T11:28:51.697Z,100.00
2023-01-20T11:31:19.079Z,100.00
2023-01-20T11:34:00.871Z,100.00
2023-01-20T11:36:27.663Z,100.00
2023-01-20T11:38:56.393Z,100.00
2023-01-20T11:41:28.592Z,100.00
2023-01-20T11:43:57.237Z,100.00
2023-01-20T11:46:29.622Z,100.00
2023-01-20T11:49:14.012Z,100.00
2023-01-20T11:51:54.222Z,100.00
2023-01-20T11:54:26.366Z,100.00
2023-01-20T11:56:59.402Z,100.00
2023-01-20T11:59:31.566Z,100.00
2023-01-20T12:02:06.702Z,100.00
2023-01-20T12:04:36.179Z,100.00
2023-01-20T12:07:07.589Z,100.00
2023-01-20T12:09:41.441Z,100.00
2023-01-20T12:12:07.931Z,100.00
2023-01-20T12:14:42.147Z,100.00
2023-01-20T12:17:39.376Z,100.00
2023-01-20T12:20:11.674Z,100.00
2023-01-20T12:22:47.979Z,100.00
2023-01-20T12:25:30.382Z,100.00
2023-01-20T12:28:04.084Z,100.00
2023-01-20T12:30:37.133Z,100.00
2023-01-20T12:33:04.042Z,100.00
2023-01-20T12:35:39.059Z,100.00
2023-01-20T12:38:08.906Z,100.00
2023-01-20T12:40:48.693Z,100.00
2023-01-20T12:44:04.468Z,100.00
2023-01-20T12:46:53.537Z,100.00
2023-01-20T12:49:30.283Z,100.00
2023-01-20T12:52:21.326Z,100.00
2023-01-20T12:55:08.967Z,100.00
2023-01-20T12:57:47.419Z,100.00
2023-01-20T13:00:42.742Z,100.00
2023-01-20T13:03:40.136Z,100.00
2023-01-20T13:06:37.337Z,100.00
2023-01-20T13:09:29.042Z,100.00
2023-01-20T13:12:13.495Z,100.00
2023-01-20T13:14:44.934Z,100.00
2023-01-20T13:17:18.528Z,100.00
2023-01-20T13:19:45.130Z,100.00
2023-01-20T13:22:21.363Z,100.00
2023-01-20T13:24:53.422Z,100.00
2023-01-20T13:27:33.134Z,100.00
2023-01-20T13:30:01.225Z,100.00
2023-01-20T13:32:32.372Z,100.00
2023-01-20T13:34:59.968Z,100.00
2023-01-20T13:37:29.480Z,100.00
2023-01-20T13:39:56.865Z,100.00
2023-01-20T13:42:38.641Z,100.00
2023-01-20T13:45:11.091Z,100.00
2023-01-20T13:47:55.964Z,100.00
2023-01-20T13:50:23.996Z,100.00
2023-01-20T13:52:50.294Z,100.00
2023-01-20T13:55:41.642Z,100.00
2023-01-20T13:58:35.037Z,100.00
2023-01-20T14:01:06.510Z,100.00
2023-01-20T14:03:37.980Z,100.00
2023-01-20T14:06:06.563Z,100.00
2023-01-20T14:08:41.645Z,100.00
2023-01-20T14:11:18.007Z,100.00
2023-01-20T14:14:04.752Z,100.00
2023-01-20T14:16:38.289Z,100.00
2023-01-20T14:19:28.876Z,100.00
2023-01-20T14:21:58.169Z,100.00
2023-01-20T14:24:31.132Z,100.00
2023-01-20T14:27:07.504Z,100.00
2023-01-20T14:29:33.877Z,100.00
2023-01-20T14:32:00.325Z,100.00
2023-01-20T14:34:32.895Z,100.00
2023-01-20T14:37:03.733Z,100.00
2023-01-20T14:39:30.769Z,100.00
2023-01-20T14:41:59.548Z,100.00
2023-01-20T14:44:31.120Z,100.00
2023-01-20T14:46:59.128Z,100.00
2023-01-20T14:49:37.301Z,100.00
2023-01-20T14:52:05.431Z,100.00
2023-01-20T14:54:38.354Z,100.00
2023-01-20T14:57:18.676Z,100.00
2023-01-20T14:59:45.211Z,100.00
2023-01-20T15:02:28.358Z,100.00
2023-01-20T15:04:55.356Z,100.00
2023-01-20T15:07:23.582Z,100.00
2023-01-20T15:10:09.236Z,100.00
2023-01-20T15:12:51.882Z,100.00
2023-01-20T15:15:30.600Z,100.00
2023-01-20T15:18:05.865Z,100.00
2023-01-20T15:20:33.975Z,100.00
2023-01-20T15:23:00.942Z,100.00
2023-01-20T15:25:28.893Z,100.00
2023-01-20T15:27:56.809Z,100.00
2023-01-20T15:30:24.822Z,100.00
2023-01-20T15:32:51.952Z,99.73
2023-01-20T15:35:21.007Z,100.00
2023-01-20T15:37:47.389Z,100.00
2023-01-20T15:40:15.086Z,100.00
2023-01-20T15:42:41.604Z,100.00
2023-01-20T15:45:08.385Z,100.00
2023-01-20T15:47:34.810Z,100.00
2023-01-20T15:50:01.107Z,100.00
2023-01-20T15:52:27.633Z,100.00
2023-01-20T15:54:53.955Z,100.00
2023-01-20T15:57:20.181Z,99.58
2023-01-20T15:59:46.570Z,99.39
2023-01-20T16:02:22.846Z,99.57
2023-01-20T16:04:49.736Z,99.62
2023-01-20T16:07:18.085Z,99.14
2023-01-20T16:09:44.648Z,99.08
2023-01-20T16:12:15.785Z,99.23
2023-01-20T16:14:42.679Z,98.61
2023-01-20T16:17:16.127Z,98.78
2023-01-20T16:19:42.567Z,98.55
2023-01-20T16:22:09.186Z,98.34
2023-01-20T16:24:35.583Z,98.33
2023-01-20T16:27:03.152Z,98.29
2023-01-20T16:29:29.838Z,98.36
2023-01-20T16:31:56.330Z,98.55
2023-01-20T16:34:22.741Z,99.08
2023-01-20T16:36:48.973Z,98.88
2023-01-20T16:39:15.369Z,99.19
2023-01-20T16:41:46.400Z,99.23
2023-01-20T16:44:12.755Z,99.60
2023-01-20T16:46:39.031Z,99.41
2023-01-20T16:49:05.376Z,99.46
2023-01-20T16:51:31.736Z,99.62
2023-01-20T16:53:59.242Z,99.60
2023-01-20T16:56:28.143Z,99.91
2023-01-20T16:58:56.251Z,100.00
2023-01-20T17:01:22.572Z,100.00
2023-01-20T17:03:51.315Z,99.84
2023-01-20T17:06:20.954Z,99.87
2023-01-20T17:08:55.991Z,100.00
2023-01-20T17:11:25.448Z,99.83
2023-01-20T17:13:52.657Z,99.74
2023-01-20T17:16:20.128Z,99.43
2023-01-20T17:18:50.961Z,99.52
2023-01-20T17:21:18.234Z,99.16
2023-01-20T17:23:52.091Z,99.38
2023-01-20T17:26:19.194Z,99.35
2023-01-20T17:28:45.931Z,99.28
2023-01-20T17:31:12.637Z,99.62
2023-01-20T17:33:39.353Z,99.81
2023-01-20T17:36:06.351Z,99.97
2023-01-20T17:38:34.372Z,100.00
2023-01-20T17:41:04.628Z,100.00
2023-01-20T17:43:32.790Z,100.00
2023-01-20T17:45:59.509Z,100.00
2023-01-20T17:48:26.522Z,100.00
2023-01-20T17:50:53.810Z,100.00
2023-01-20T17:53:20.131Z,100.00
2023-01-20T17:55:46.450Z,100.00
2023-01-20T17:58:12.852Z,100.00
2023-01-20T18:00:39.174Z,100.00
2023-01-20T18:03:05.548Z,100.00
2023-01-20T18:05:31.851Z,100.00
2023-01-20T18:07:58.223Z,100.00
2023-01-20T18:10:24.623Z,100.00
2023-01-20T18:12:50.918Z,100.00
2023-01-20T18:15:17.526Z,100.00
2023-01-20T18:17:43.990Z,100.00
2023-01-20T18:20:10.743Z,100.00
2023-01-20T18:22:37.059Z,100.00
2023-01-20T18:25:03.532Z,100.00
2023-01-20T18:27:29.866Z,100.00
2023-01-20T18:29:56.206Z,100.00
2023-01-20T18:32:22.582Z,100.00
2023-01-20T18:34:48.943Z,100.00
2023-01-20T18:37:15.301Z,100.00
2023-01-20T18:39:41.632Z,100.00
2023-01-20T18:42:08.296Z,100.00
2023-01-20T18:44:34.661Z,100.00
2023-01-20T18:47:00.977Z,100.00
2023-01-20T18:49:27.375Z,100.00
2023-01-20T18:51:53.678Z,100.00
2023-01-20T18:54:20.166Z,100.00
2023-01-20T18:56:46.446Z,100.00
2023-01-20T18:59:13.339Z,100.00
2023-01-20T19:01:40.802Z,100.00
2023-01-20T19:04:10.216Z,100.00
2023-01-20T19:06:39.219Z,100.00
2023-01-20T19:09:06.888Z,100.00
2023-01-20T19:11:35.667Z,100.00
2023-01-20T19:14:02.712Z,100.00
2023-01-20T19:16:31.463Z,100.00
2023-01-20T19:19:00.135Z,100.00
2023-01-20T19:21:27.618Z,100.00
2023-01-20T19:23:56.255Z,100.00
2023-01-20T19:26:24.653Z,100.00
2023-01-20T19:28:58.388Z,100.00
2023-01-20T19:31:24.935Z,100.00
2023-01-20T19:33:52.301Z,100.00
2023-01-20T19:36:19.286Z,100.00
2023-01-20T19:38:46.421Z,100.00
2023-01-20T19:41:20.671Z,100.00
2023-01-20T19:43:47.170Z,100.00
2023-01-20T19:46:15.149Z,100.00
2023-01-20T19:48:42.209Z,100.00
2023-01-20T19:51:13.738Z,100.00
2023-01-20T19:53:41.126Z,100.00
2023-01-20T19:56:15.503Z,100.00
2023-01-20T19:58:43.616Z,100.00
2023-01-20T20:01:18.736Z,100.00
2023-01-20T20:03:45.404Z,100.00
2023-01-20T20:06:29.617Z,100.00
2023-01-20T20:09:01.830Z,100.00
2023-01-20T20:11:29.315Z,100.00
2023-01-20T20:13:57.419Z,100.00
2023-01-20T20:16:25.605Z,100.00
2023-01-20T20:18:52.941Z,100.00
2023-01-20T20:21:19.696Z,100.00
2023-01-20T20:23:53.404Z,100.00
2023-01-20T20:26:21.515Z,100.00
2023-01-20T20:28:48.153Z,100.00
2023-01-20T20:31:14.620Z,100.00
2023-01-20T20:33:40.931Z,100.00
2023-01-20T20:36:09.316Z,100.00
2023-01-20T20:38:36.402Z,100.00
2023-01-20T20:41:04.777Z,100.00
2023-01-20T20:43:31.136Z,100.00
2023-01-20T20:46:02.050Z,100.00
2023-01-20T20:48:28.471Z,100.00
2023-01-20T20:50:54.960Z,100.00
2023-01-20T20:53:21.575Z,100.00
2023-01-20T20:55:48.481Z,100.00
2023-01-20T20:58:14.838Z,100.00
2023-01-20T21:00:41.160Z,100.00
2023-01-20T21:03:07.663Z,100.00
2023-01-20T21:05:34.530Z,100.00
2023-01-20T21:08:00.939Z,100.00
2023-01-20T21:10:27.313Z,100.00
2023-01-20T21:12:53.640Z,100.00
2023-01-20T21:15:19.999Z,100.00
2023-01-20T21:17:46.502Z,100.00
2023-01-20T21:20:12.758Z,100.00
2023-01-20T21:22:39.173Z,100.00
2023-01-20T21:25:06.198Z,100.00
2023-01-20T21:27:32.672Z,100.00
2023-01-20T21:29:58.956Z,100.00
2023-01-20T21:32:25.280Z,100.00
2023-01-20T21:34:51.614Z,100.00
2023-01-20T21:37:17.946Z,100.00
2023-01-20T21:39:44.359Z,100.00
2023-01-20T21:42:10.696Z,100.00
2023-01-20T21:44:37.076Z,100.00
2023-01-20T21:47:06.565Z,100.00
2023-01-20T21:49:33.002Z,100.00
2023-01-20T21:51:59.223Z,100.00
2023-01-20T21:54:33.364Z,100.00
2023-01-20T21:57:00.886Z,100.00
2023-01-20T21:59:27.351Z,100.00
2023-01-20T22:01:53.881Z,100.00
2023-01-20T22:04:20.318Z,100.00
2023-01-20T22:06:46.731Z,100.00
2023-01-20T22:09:13.321Z,100.00
2023-01-20T22:11:39.695Z,100.00
2023-01-20T22:14:06.114Z,100.00
2023-01-20T22:16:32.645Z,100.00
2023-01-20T22:18:58.933Z,100.00
2023-01-20T22:21:25.284Z,100.00
2023-01-20T22:23:52.250Z,100.00
2023-01-20T22:26:18.627Z,100.00
2023-01-20T22:28:44.990Z,100.00
2023-01-20T22:31:13.854Z,100.00
2023-01-20T22:33:40.223Z,100.00
2023-01-20T22:36:06.902Z,100.00
2023-01-20T22:38:33.669Z,100.00
2023-01-20T22:41:07.205Z,100.00
2023-01-20T22:43:33.899Z,100.00
2023-01-20T22:46:01.885Z,100.00
2023-01-20T22:48:31.333Z,100.00
2023-01-20T22:51:09.419Z,100.00
2023-01-20T22:53:36.254Z,100.00
2023-01-20T22:56:07.776Z,100.00
2023-01-20T22:58:34.526Z,100.00
2023-01-20T23:01:01.566Z,100.00
2023-01-20T23:03:28.303Z,100.00
2023-01-20T23:05:59.743Z,100.00
2023-01-20T23:08:29.082Z,100.00
2023-01-20T23:10:57.476Z,100.00
2023-01-20T23:13:24.240Z,100.00
2023-01-20T23:15:51.207Z,100.00
2023-01-20T23:18:18.687Z,100.00
2023-01-20T23:20:53.975Z,100.00
2023-01-20T23:23:21.518Z,100.00
2023-01-20T23:25:47.896Z,100.00
2023-01-20T23:28:14.697Z,100.00
2023-01-20T23:30:41.402Z,100.00
2023-01-20T23:33:08.559Z,100.00
2023-01-20T23:35:36.423Z,100.00
2023-01-20T23:38:02.725Z,100.00
2023-01-20T23:40:29.018Z,100.00
2023-01-20T23:42:55.409Z,100.00
2023-01-20T23:45:21.768Z,100.00
2023-01-20T23:47:48.087Z,100.00
2023-01-20T23:50:14.852Z,100.00
2023-01-20T23:52:41.397Z,100.00
2023-01-20T23:55:08.255Z,100.00
2023-01-20T23:57:34.707Z,100.00
